Time;durP1;ratioP1;P1;durP2;ratioP2;P2;SDS_P1;SDS_P2;PMS_P1;PMS_P2;Temp;Humidity;BMP_temperature;BMP_pressure;BME280_temperature;BME280_humidity;BME280_pressure;Samples;Min_cycle;Max_cycle;Signal;HPM_P1;HPM_P2
2021/11/29 00:00:30;;;;;;;30.88;6.22;;;6.50;93.10;;;;;;5010693;28;20660;-60
2021/11/29 00:03:07;;;;;;;35.25;6.57;;;6.50;93.20;;;;;;5009063;28;20063;-60
2021/11/29 00:05:33;;;;;;;47.05;6.28;;;6.50;93.20;;;;;;5011517;28;20056;-59
2021/11/29 00:08:00;;;;;;;41.28;6.68;;;6.50;93.20;;;;;;5012139;28;20085;-60
2021/11/29 00:10:26;;;;;;;46.20;6.07;;;6.50;93.20;;;;;;5011527;28;20058;-61
2021/11/29 00:12:52;;;;;;;31.63;5.88;;;6.50;93.20;;;;;;5025792;28;20036;-59
2021/11/29 00:15:18;;;;;;;48.08;7.63;;;6.50;93.20;;;;;;5026239;28;20086;-60
2021/11/29 00:17:43;;;;;;;38.22;5.95;;;6.50;93.20;;;;;;5043262;28;20505;-60
2021/11/29 00:20:10;;;;;;;38.78;5.78;;;6.50;93.30;;;;;;5026955;28;20136;-60
2021/11/29 00:22:36;;;;;;;24.50;6.18;;;6.50;93.30;;;;;;5009716;28;20012;-60
2021/11/29 00:25:02;;;;;;;33.17;5.68;;;6.50;93.30;;;;;;5027363;28;20852;-61
2021/11/29 00:27:27;;;;;;;29.38;6.38;;;6.40;93.30;;;;;;5011376;28;20365;-60
2021/11/29 00:29:53;;;;;;;26.85;6.22;;;6.40;93.30;;;;;;5049247;28;20054;-60
2021/11/29 00:32:18;;;;;;;22.33;6.25;;;6.40;93.30;;;;;;5032098;28;20031;-60
2021/11/29 00:34:44;;;;;;;27.27;6.20;;;6.40;93.30;;;;;;5031623;28;20164;-60
2021/11/29 00:37:09;;;;;;;33.55;6.50;;;6.40;93.30;;;;;;5030894;28;20059;-60
2021/11/29 00:39:35;;;;;;;22.88;5.25;;;6.40;93.40;;;;;;5014606;28;20109;-61
2021/11/29 00:42:00;;;;;;;17.73;5.80;;;6.40;93.40;;;;;;5012658;28;20119;-61
2021/11/29 00:44:28;;;;;;;17.63;6.13;;;6.40;93.40;;;;;;5016354;28;20027;-60
2021/11/29 00:46:54;;;;;;;21.95;5.80;;;6.40;93.40;;;;;;5031428;28;20025;-61
2021/11/29 00:49:20;;;;;;;27.52;5.55;;;6.40;93.40;;;;;;5015223;28;20040;-60
2021/11/29 00:51:45;;;;;;;28.15;6.00;;;6.30;93.40;;;;;;5063431;28;20055;-60
2021/11/29 00:54:11;;;;;;;26.27;6.20;;;6.30;93.50;;;;;;5045401;28;20103;-60
2021/11/29 00:56:37;;;;;;;23.23;5.95;;;6.50;93.60;;;;;;5030783;28;20124;-60
2021/11/29 00:59:02;;;;;;;25.60;5.00;;;6.30;93.50;;;;;;5033378;28;20033;-61
2021/11/29 01:01:28;;;;;;;18.90;5.57;;;6.30;93.50;;;;;;5029513;28;20029;-60
2021/11/29 01:03:54;;;;;;;12.80;4.97;;;6.30;93.50;;;;;;5012382;28;20503;-60
2021/11/29 01:06:19;;;;;;;21.33;5.25;;;6.30;93.50;;;;;;5013649;28;20025;-60
2021/11/29 01:08:45;;;;;;;12.35;5.35;;;6.30;93.60;;;;;;5015113;28;20133;-60
2021/11/29 01:11:10;;;;;;;16.25;4.57;;;6.30;93.40;;;;;;5030909;28;20043;-60
2021/11/29 01:13:36;;;;;;;18.13;4.93;;;6.30;93.40;;;;;;5014433;28;20121;-60
2021/11/29 01:16:02;;;;;;;11.40;4.60;;;6.30;93.40;;;;;;5030815;28;20033;-60
2021/11/29 01:18:27;;;;;;;19.65;5.95;;;6.30;93.40;;;;;;5028856;28;20017;-60
2021/11/29 01:20:53;;;;;;;12.50;4.45;;;6.20;93.40;;;;;;5029746;28;20037;-60
2021/11/29 01:23:19;;;;;;;12.10;4.60;;;6.20;93.50;;;;;;5030674;28;20033;-60
2021/11/29 01:25:44;;;;;;;15.85;5.20;;;6.30;93.60;;;;;;5031215;28;20035;-60
2021/11/29 01:28:10;;;;;;;17.08;4.93;;;6.20;93.80;;;;;;5013283;28;20036;-60
2021/11/29 01:30:36;;;;;;;16.35;4.47;;;6.20;93.50;;;;;;5030021;28;20032;-60
2021/11/29 01:33:01;;;;;;;11.65;4.80;;;6.20;93.50;;;;;;5012723;28;20512;-60
2021/11/29 01:35:27;;;;;;;11.05;4.32;;;6.20;93.50;;;;;;5031626;28;20062;-60
2021/11/29 01:37:53;;;;;;;11.07;4.63;;;6.20;93.50;;;;;;5046763;28;20025;-60
2021/11/29 01:40:18;;;;;;;15.30;4.53;;;6.20;93.50;;;;;;5027996;28;20035;-60
2021/11/29 01:42:56;;;;;;;9.93;5.05;;;6.20;93.50;;;;;;5013439;28;20028;-60
2021/11/29 01:45:22;;;;;;;15.63;3.97;;;6.20;93.50;;;;;;5063557;28;20036;-60
2021/11/29 01:47:47;;;;;;;8.75;3.85;;;6.20;93.50;;;;;;5020359;28;20038;-60
2021/11/29 01:50:13;;;;;;;11.52;3.90;;;6.20;93.50;;;;;;5014746;28;20047;-60
2021/11/29 01:52:38;;;;;;;11.73;4.25;;;6.20;93.50;;;;;;5013978;28;20502;-60
2021/11/29 01:55:04;;;;;;;10.15;4.05;;;6.20;93.50;;;;;;5029355;28;20748;-60
2021/11/29 01:57:30;;;;;;;10.35;3.50;;;6.20;93.50;;;;;;5012227;28;20025;-60
2021/11/29 01:59:55;;;;;;;9.00;4.15;;;6.20;93.50;;;;;;5011715;28;20037;-60
2021/11/29 02:02:22;;;;;;;7.78;3.78;;;6.10;93.50;;;;;;5014581;28;21346;-60
2021/11/29 02:04:47;;;;;;;7.07;3.67;;;6.20;93.60;;;;;;5048454;28;20052;-60
2021/11/29 02:07:13;;;;;;;11.82;4.32;;;6.20;93.50;;;;;;5013122;28;20051;-60
2021/11/29 02:09:39;;;;;;;7.88;3.78;;;6.10;93.50;;;;;;5014229;28;20093;-60
2021/11/29 02:12:04;;;;;;;4.43;3.63;;;6.10;93.50;;;;;;5012292;28;20383;-60
2021/11/29 02:14:30;;;;;;;4.93;3.15;;;6.10;93.50;;;;;;5029533;28;20059;-60
2021/11/29 02:16:56;;;;;;;7.85;3.72;;;6.10;93.50;;;;;;5012264;28;20033;-60
2021/11/29 02:19:21;;;;;;;10.13;3.55;;;6.10;93.60;;;;;;5011987;28;20029;-60
2021/11/29 02:21:47;;;;;;;9.30;3.80;;;6.10;93.60;;;;;;5028020;28;20063;-60
2021/11/29 02:24:12;;;;;;;4.90;3.58;;;6.00;93.50;;;;;;5012862;28;20110;-60
2021/11/29 02:26:38;;;;;;;5.75;3.47;;;6.10;93.60;;;;;;5028229;28;20037;-61
2021/11/29 02:29:08;;;;;;;12.73;4.15;;;6.00;93.50;;;;;;5029387;28;20029;-60
2021/11/29 02:31:36;;;;;;;5.78;3.42;;;6.00;93.50;;;;;;5045433;28;20202;-59
2021/11/29 02:34:09;;;;;;;8.20;3.67;;;6.00;93.50;;;;;;5028706;28;20064;-60
2021/11/29 02:36:35;;;;;;;5.03;3.05;;;6.00;93.50;;;;;;5028383;28;20091;-60
2021/11/29 02:39:00;;;;;;;4.57;3.47;;;6.00;93.50;;;;;;5014217;28;20032;-60
2021/11/29 02:41:26;;;;;;;7.00;3.83;;;6.00;93.50;;;;;;5030210;28;20384;-61
2021/11/29 02:43:51;;;;;;;5.80;3.47;;;6.00;93.60;;;;;;5013668;28;20680;-60
2021/11/29 02:46:17;;;;;;;6.43;2.90;;;6.00;93.50;;;;;;5011774;28;20046;-60
2021/11/29 02:48:47;;;;;;;4.22;2.60;;;5.90;93.60;;;;;;5011076;28;20025;-60
2021/11/29 02:51:34;;;;;;;3.72;3.10;;;5.90;93.50;;;;;;5026584;28;20295;-60
2021/11/29 02:54:05;;;;;;;4.28;3.13;;;6.00;93.50;;;;;;5030177;28;20317;-60
2021/11/29 02:56:31;;;;;;;3.92;3.15;;;5.90;93.50;;;;;;5013021;28;20016;-59
2021/11/29 02:58:56;;;;;;;5.63;3.10;;;5.90;93.50;;;;;;5027270;28;20039;-60
2021/11/29 03:01:22;;;;;;;4.00;3.25;;;5.90;93.50;;;;;;5011434;28;20032;-60
2021/11/29 03:03:50;;;;;;;4.05;3.13;;;5.90;93.50;;;;;;5024793;28;20037;-60
2021/11/29 03:06:15;;;;;;;8.02;3.85;;;5.90;93.50;;;;;;5024405;28;20094;-60
2021/11/29 03:08:41;;;;;;;3.65;3.20;;;5.90;93.50;;;;;;5010857;28;20955;-60
2021/11/29 03:11:07;;;;;;;7.85;3.20;;;5.90;93.80;;;;;;5025635;28;20431;-60
2021/11/29 03:13:32;;;;;;;6.25;3.20;;;5.90;93.50;;;;;;5041146;28;20029;-60
2021/11/29 03:15:58;;;;;;;4.05;3.28;;;5.90;93.50;;;;;;5025229;28;20043;-60
2021/11/29 03:18:30;;;;;;;3.42;3.05;;;5.90;93.50;;;;;;5006790;28;20106;-61
2021/11/29 03:20:56;;;;;;;8.52;2.92;;;5.90;93.50;;;;;;5042872;28;20013;-61
2021/11/29 03:23:21;;;;;;;3.13;2.83;;;5.90;93.50;;;;;;5009550;28;20090;-60
2021/11/29 03:25:47;;;;;;;3.10;2.80;;;5.90;93.50;;;;;;5025988;28;20028;-60
2021/11/29 03:28:14;;;;;;;3.40;3.10;;;5.90;93.50;;;;;;5007915;28;20260;-60
2021/11/29 03:30:39;;;;;;;4.55;2.80;;;5.80;93.50;;;;;;5008274;28;20124;-60
2021/11/29 03:33:05;;;;;;;3.25;2.95;;;5.90;93.50;;;;;;5009634;28;20122;-60
2021/11/29 03:35:30;;;;;;;5.57;3.40;;;5.80;93.50;;;;;;5024340;28;20428;-60
2021/11/29 03:37:56;;;;;;;4.03;3.55;;;5.80;93.50;;;;;;5010640;28;20033;-60
2021/11/29 03:40:21;;;;;;;4.80;3.30;;;5.80;93.50;;;;;;5008254;28;20111;-60
2021/11/29 03:42:47;;;;;;;3.83;3.05;;;5.80;93.50;;;;;;5023977;28;20085;-61
2021/11/29 03:45:12;;;;;;;5.10;3.38;;;5.80;93.50;;;;;;5022784;28;20492;-61
2021/11/29 03:47:38;;;;;;;4.25;2.90;;;5.80;93.60;;;;;;5026560;28;20028;-61
2021/11/29 03:50:04;;;;;;;3.53;3.05;;;5.80;93.50;;;;;;5042499;28;20036;-61
2021/11/29 03:52:30;;;;;;;3.10;2.80;;;5.80;93.50;;;;;;5023355;28;20032;-61
2021/11/29 03:54:55;;;;;;;5.13;3.30;;;5.80;93.50;;;;;;5026020;28;20673;-61
2021/11/29 03:57:21;;;;;;;4.93;3.13;;;5.70;93.50;;;;;;5023126;28;20404;-61
2021/11/29 03:59:46;;;;;;;3.65;3.28;;;5.70;93.50;;;;;;5026015;28;20071;-61
2021/11/29 04:02:12;;;;;;;3.85;3.45;;;5.70;93.50;;;;;;5009545;28;20025;-61
2021/11/29 04:04:38;;;;;;;3.45;2.92;;;5.70;93.50;;;;;;5029303;28;20041;-61
2021/11/29 04:07:03;;;;;;;5.30;2.78;;;5.70;93.50;;;;;;5028435;28;20115;-61
2021/11/29 04:09:29;;;;;;;5.03;2.78;;;5.70;93.50;;;;;;5028843;28;20522;-61
2021/11/29 04:11:55;;;;;;;9.10;3.10;;;5.70;93.50;;;;;;5013694;28;20033;-61
2021/11/29 04:14:21;;;;;;;3.53;3.00;;;5.70;93.50;;;;;;5029354;28;20120;-61
2021/11/29 04:16:47;;;;;;;4.30;3.38;;;5.70;93.50;;;;;;5028229;28;20107;-61
2021/11/29 04:19:13;;;;;;;4.00;3.08;;;5.70;93.50;;;;;;5026885;28;20209;-61
2021/11/29 04:21:38;;;;;;;4.65;3.25;;;5.70;93.60;;;;;;5028140;28;20059;-61
2021/11/29 04:24:04;;;;;;;3.95;3.40;;;5.70;93.50;;;;;;5029658;28;20499;-61
2021/11/29 04:26:30;;;;;;;5.22;3.10;;;5.70;93.50;;;;;;5029123;28;20463;-61
2021/11/29 04:28:56;;;;;;;6.03;3.22;;;5.60;93.50;;;;;;5029078;28;20028;-61
2021/11/29 04:31:21;;;;;;;4.15;3.33;;;5.70;93.50;;;;;;5011212;28;20028;-60
2021/11/29 04:33:47;;;;;;;4.53;3.20;;;5.70;93.50;;;;;;5012699;28;20032;-61
2021/11/29 04:36:13;;;;;;;3.72;3.35;;;5.60;93.50;;;;;;5027100;28;20051;-61
2021/11/29 04:38:38;;;;;;;3.75;3.17;;;5.70;93.60;;;;;;5028828;28;20472;-61
2021/11/29 04:41:04;;;;;;;4.20;3.45;;;5.60;93.50;;;;;;5014106;28;20118;-61
2021/11/29 04:43:29;;;;;;;5.35;3.08;;;5.70;93.60;;;;;;5026273;28;20060;-60
2021/11/29 04:45:55;;;;;;;4.55;3.33;;;5.60;93.50;;;;;;5027071;28;20028;-61
2021/11/29 04:48:20;;;;;;;3.55;3.25;;;5.60;93.50;;;;;;5026108;28;20559;-60
2021/11/29 04:50:46;;;;;;;3.67;3.38;;;5.60;93.50;;;;;;5029078;28;20086;-61
2021/11/29 04:53:12;;;;;;;5.00;3.58;;;5.60;93.50;;;;;;5012412;28;20346;-60
2021/11/29 04:55:37;;;;;;;9.85;3.97;;;5.60;93.50;;;;;;5028478;28;20074;-61
2021/11/29 04:58:03;;;;;;;10.48;3.67;;;5.60;93.40;;;;;;5011672;28;20386;-60
2021/11/29 05:00:28;;;;;;;16.95;4.55;;;5.60;93.40;;;;;;5026993;28;20143;-61
2021/11/29 05:02:54;;;;;;;11.25;5.13;;;5.60;93.40;;;;;;5011956;28;20124;-61
2021/11/29 05:05:20;;;;;;;19.33;4.95;;;5.60;93.50;;;;;;5027907;28;20191;-61
2021/11/29 05:07:45;;;;;;;13.30;4.47;;;5.60;93.50;;;;;;5012573;28;20166;-60
2021/11/29 05:10:11;;;;;;;11.63;4.72;;;5.60;93.40;;;;;;5012341;28;20339;-61
2021/11/29 05:12:36;;;;;;;16.23;4.43;;;5.60;93.40;;;;;;5009881;28;20060;-61
2021/11/29 05:15:02;;;;;;;11.05;4.72;;;5.50;93.30;;;;;;5027348;28;20561;-61
2021/11/29 05:17:28;;;;;;;11.02;4.60;;;5.60;93.40;;;;;;5010510;28;20032;-61
2021/11/29 05:19:53;;;;;;;19.52;5.13;;;5.60;93.30;;;;;;5029931;28;20021;-60
2021/11/29 05:22:19;;;;;;;22.35;4.72;;;5.60;93.30;;;;;;5009642;28;20460;-61
2021/11/29 05:24:45;;;;;;;16.92;4.45;;;5.50;93.30;;;;;;5026835;28;20039;-61
2021/11/29 05:27:10;;;;;;;19.42;4.80;;;5.60;93.30;;;;;;5026557;28;20058;-60
2021/11/29 05:29:36;;;;;;;8.30;4.10;;;5.50;93.30;;;;;;5042906;28;20132;-60
2021/11/29 05:32:02;;;;;;;15.63;4.60;;;5.50;93.30;;;;;;5029345;28;20032;-60
2021/11/29 05:34:27;;;;;;;7.75;4.38;;;5.50;93.30;;;;;;5027759;28;20537;-60
2021/11/29 05:36:53;;;;;;;18.30;5.55;;;5.50;93.40;;;;;;5009467;28;20039;-60
2021/11/29 05:39:18;;;;;;;16.98;5.45;;;5.50;93.40;;;;;;5027023;28;20028;-60
2021/11/29 05:41:44;;;;;;;21.67;5.65;;;5.50;93.40;;;;;;5011004;28;20029;-60
2021/11/29 05:44:10;;;;;;;15.13;5.45;;;5.50;93.30;;;;;;5028660;28;20039;-60
2021/11/29 05:46:35;;;;;;;22.02;5.65;;;5.50;93.40;;;;;;5014595;28;20033;-60
2021/11/29 05:49:01;;;;;;;19.83;5.28;;;5.50;93.50;;;;;;5026618;28;20068;-60
2021/11/29 05:51:27;;;;;;;20.13;5.25;;;5.50;93.50;;;;;;5009300;28;20112;-61
2021/11/29 05:53:53;;;;;;;13.90;5.00;;;5.40;93.80;;;;;;5026739;28;20123;-60
2021/11/29 05:56:18;;;;;;;16.17;5.78;;;5.40;93.50;;;;;;5009744;28;20060;-61
2021/11/29 05:58:44;;;;;;;21.05;5.80;;;5.40;93.50;;;;;;5028397;28;20028;-60
2021/11/29 06:01:09;;;;;;;27.77;5.97;;;5.40;93.50;;;;;;5025027;28;20531;-61
2021/11/29 06:03:35;;;;;;;13.00;5.38;;;5.50;93.50;;;;;;5024871;28;20076;-61
2021/11/29 06:06:01;;;;;;;9.48;5.00;;;5.40;93.50;;;;;;5010636;28;20464;-61
2021/11/29 06:08:26;;;;;;;9.93;5.30;;;5.40;93.40;;;;;;5024781;28;20037;-60
2021/11/29 06:10:52;;;;;;;27.15;7.20;;;5.40;93.40;;;;;;5011069;28;20032;-60
2021/11/29 06:13:17;;;;;;;25.77;5.60;;;5.40;93.40;;;;;;5023878;28;20029;-60
2021/11/29 06:15:44;;;;;;;16.63;5.93;;;5.40;93.40;;;;;;5043180;28;20028;-60
2021/11/29 06:18:09;;;;;;;17.35;5.57;;;5.40;93.40;;;;;;5009172;28;20121;-61
2021/11/29 06:20:35;;;;;;;16.88;5.90;;;5.40;93.40;;;;;;5023078;28;20025;-61
2021/11/29 06:23:01;;;;;;;15.30;5.78;;;5.40;93.40;;;;;;5041404;28;20123;-60
2021/11/29 06:25:27;;;;;;;13.30;5.53;;;5.40;93.40;;;;;;5009952;28;20020;-60
2021/11/29 06:27:52;;;;;;;17.65;6.13;;;5.40;93.30;;;;;;5025038;28;20078;-61
2021/11/29 06:30:18;;;;;;;18.05;6.05;;;5.40;93.60;;;;;;5011707;28;20494;-61
2021/11/29 06:32:43;;;;;;;15.20;6.25;;;5.40;93.30;;;;;;5026828;28;20037;-60
2021/11/29 06:35:09;;;;;;;13.40;5.82;;;5.40;93.30;;;;;;5009181;28;20121;-60
2021/11/29 06:37:35;;;;;;;13.85;5.93;;;5.30;93.30;;;;;;5026787;28;20051;-60
2021/11/29 06:40:01;;;;;;;24.13;5.65;;;5.30;93.30;;;;;;5028005;28;20024;-60
2021/11/29 06:42:26;;;;;;;17.00;5.97;;;5.40;93.40;;;;;;5025400;28;20023;-60
2021/11/29 06:44:52;;;;;;;11.02;6.00;;;5.30;93.30;;;;;;5025649;28;20654;-60
2021/11/29 06:47:18;;;;;;;14.68;5.70;;;5.40;93.30;;;;;;5041306;28;20122;-60
2021/11/29 06:49:43;;;;;;;11.10;6.22;;;5.30;93.30;;;;;;5028956;28;20016;-61
2021/11/29 06:52:09;;;;;;;13.75;6.07;;;5.40;93.30;;;;;;5028201;28;20020;-60
2021/11/29 06:54:37;;;;;;;21.35;6.55;;;5.30;93.60;;;;;;5042512;28;20136;-61
2021/11/29 06:57:03;;;;;;;12.27;6.07;;;5.30;93.20;;;;;;5026437;28;20089;-60
2021/11/29 06:59:29;;;;;;;17.38;6.45;;;5.40;93.20;;;;;;5040736;28;20033;-61
2021/11/29 07:01:55;;;;;;;12.73;6.22;;;5.30;93.20;;;;;;5042297;28;20068;-60
2021/11/29 07:04:21;;;;;;;8.73;6.20;;;5.30;93.20;;;;;;5025783;28;20070;-60
2021/11/29 07:06:47;;;;;;;12.32;6.32;;;5.30;93.20;;;;;;5008848;28;20028;-61
2021/11/29 07:09:13;;;;;;;10.55;5.68;;;5.30;93.20;;;;;;5024736;28;20090;-61
2021/11/29 07:11:39;;;;;;;12.55;6.28;;;5.40;93.20;;;;;;5042028;28;20251;-61
2021/11/29 07:14:05;;;;;;;12.23;5.68;;;5.30;93.10;;;;;;5009236;28;20033;-60
2021/11/29 07:16:33;;;;;;;11.10;6.43;;;5.40;93.10;;;;;;5024083;28;20044;-60
2021/11/29 07:18:59;;;;;;;11.90;5.57;;;5.30;93.00;;;;;;5024559;28;20555;-61
2021/11/29 07:21:24;;;;;;;17.65;6.40;;;5.40;93.10;;;;;;5040754;28;20017;-60
2021/11/29 07:23:50;;;;;;;15.07;6.20;;;5.30;93.10;;;;;;5007650;28;20372;-60
2021/11/29 07:26:15;;;;;;;10.57;6.10;;;5.30;93.10;;;;;;5006531;28;20431;-61
2021/11/29 07:28:41;;;;;;;12.43;5.85;;;5.30;93.00;;;;;;5024203;28;20031;-60
2021/11/29 07:31:06;;;;;;;18.05;7.53;;;5.40;93.10;;;;;;5025711;28;20406;-61
2021/11/29 07:33:32;;;;;;;11.77;7.07;;;5.40;93.00;;;;;;5055525;28;20119;-61
2021/11/29 07:35:57;;;;;;;14.70;6.38;;;5.30;93.00;;;;;;5037285;28;20036;-61
2021/11/29 07:38:23;;;;;;;15.02;7.13;;;5.40;92.90;;;;;;5039844;28;20049;-60
2021/11/29 07:40:50;;;;;;;13.23;6.75;;;5.40;92.90;;;;;;5040588;28;20032;-61
2021/11/29 07:43:15;;;;;;;21.23;7.10;;;5.40;92.90;;;;;;5025712;28;20028;-60
2021/11/29 07:45:41;;;;;;;12.23;7.15;;;5.40;93.00;;;;;;5024762;28;20040;-61
2021/11/29 07:48:07;;;;;;;15.23;7.32;;;5.40;93.00;;;;;;5040554;28;20031;-60
2021/11/29 07:50:32;;;;;;;17.98;7.05;;;5.40;93.10;;;;;;5037545;28;20024;-60
2021/11/29 07:52:58;;;;;;;15.30;6.88;;;5.40;93.30;;;;;;5006445;28;20712;-61
2021/11/29 07:55:24;;;;;;;21.52;6.88;;;5.40;93.10;;;;;;5022961;28;20475;-61
2021/11/29 07:57:51;;;;;;;19.63;6.80;;;5.40;93.10;;;;;;5026266;28;20016;-62
2021/11/29 08:00:19;;;;;;;21.88;7.55;;;5.50;93.10;;;;;;5023143;28;20429;-61
2021/11/29 08:02:45;;;;;;;16.17;6.60;;;5.50;93.00;;;;;;5036297;28;20112;-60
2021/11/29 08:05:11;;;;;;;11.90;7.13;;;5.50;93.00;;;;;;5022518;28;20036;-60
2021/11/29 08:07:37;;;;;;;14.50;7.28;;;5.50;92.90;;;;;;5010871;28;20028;-61
2021/11/29 08:10:03;;;;;;;21.02;7.28;;;5.50;92.80;;;;;;5027577;28;20017;-60
2021/11/29 08:12:28;;;;;;;12.98;7.00;;;5.50;92.70;;;;;;5009270;28;20032;-60
2021/11/29 08:14:54;;;;;;;11.75;7.07;;;5.50;92.80;;;;;;5025626;28;20157;-60
2021/11/29 08:17:20;;;;;;;13.73;6.63;;;5.50;92.70;;;;;;5025989;28;20101;-61
2021/11/29 08:19:46;;;;;;;20.55;6.90;;;5.50;92.70;;;;;;5025995;28;20643;-61
2021/11/29 08:22:13;;;;;;;10.95;6.97;;;5.50;92.70;;;;;;5008361;28;20038;-61
2021/11/29 08:24:38;;;;;;;16.05;7.32;;;5.40;92.70;;;;;;5010603;28;20112;-61
2021/11/29 08:27:04;;;;;;;16.38;7.20;;;5.40;92.70;;;;;;5007241;28;20103;-60
2021/11/29 08:29:30;;;;;;;12.13;8.05;;;5.40;92.70;;;;;;5024200;28;20059;-60
2021/11/29 08:31:55;;;;;;;17.95;8.18;;;5.40;92.70;;;;;;5023811;28;20502;-60
2021/11/29 08:34:21;;;;;;;22.70;7.93;;;5.40;92.70;;;;;;5007734;28;20020;-61
2021/11/29 08:36:46;;;;;;;22.13;8.40;;;5.40;92.80;;;;;;5042346;28;20118;-60
2021/11/29 08:39:12;;;;;;;32.00;8.95;;;5.40;92.80;;;;;;5061809;28;20376;-61
2021/11/29 08:41:37;;;;;;;28.40;9.30;;;5.40;92.90;;;;;;5024971;28;20029;-60
2021/11/29 08:44:03;;;;;;;15.75;8.73;;;5.40;92.90;;;;;;5037957;28;20041;-61
2021/11/29 08:46:30;;;;;;;30.52;10.35;;;5.40;92.90;;;;;;5024112;28;20448;-61
2021/11/29 08:48:56;;;;;;;33.65;9.05;;;5.40;92.90;;;;;;5024717;28;20085;-61
2021/11/29 08:51:21;;;;;;;28.65;10.30;;;5.40;93.00;;;;;;5028165;28;20063;-61
2021/11/29 08:53:47;;;;;;;33.05;9.65;;;5.30;93.10;;;;;;5013190;28;20043;-61
2021/11/29 08:56:12;;;;;;;29.75;9.82;;;5.30;93.10;;;;;;5025467;28;20090;-62
2021/11/29 08:58:38;;;;;;;18.77;8.80;;;5.40;93.20;;;;;;5027789;28;20037;-63
2021/11/29 09:01:03;;;;;;;25.83;9.90;;;5.40;93.20;;;;;;5012366;28;20893;-60
2021/11/29 09:03:29;;;;;;;27.05;10.23;;;5.40;93.20;;;;;;5013678;28;20044;-61
2021/11/29 09:05:55;;;;;;;34.03;10.30;;;5.30;93.20;;;;;;5012275;28;20044;-61
2021/11/29 09:08:20;;;;;;;38.75;11.38;;;5.30;93.20;;;;;;5014399;28;20631;-62
2021/11/29 09:10:46;;;;;;;23.90;9.70;;;5.40;93.30;;;;;;5014696;28;20024;-61
2021/11/29 09:13:12;;;;;;;32.13;10.35;;;5.30;93.20;;;;;;5031016;28;20069;-60
2021/11/29 09:15:38;;;;;;;28.35;9.27;;;5.40;93.30;;;;;;5014838;28;20020;-61
2021/11/29 09:18:04;;;;;;;29.70;12.00;;;5.40;93.30;;;;;;5015979;28;20119;-61
2021/11/29 09:20:30;;;;;;;27.50;11.05;;;5.40;93.40;;;;;;5014755;28;20032;-61
2021/11/29 09:22:55;;;;;;;26.52;9.88;;;5.40;93.40;;;;;;5014509;28;20024;-60
2021/11/29 09:25:21;;;;;;;39.03;10.25;;;5.40;93.40;;;;;;5014796;28;20052;-62
2021/11/29 09:27:47;;;;;;;33.65;10.13;;;5.40;93.30;;;;;;5029884;28;20075;-63
2021/11/29 09:30:13;;;;;;;39.28;9.10;;;5.40;93.30;;;;;;5031308;28;20636;-62
2021/11/29 09:32:39;;;;;;;34.70;9.25;;;5.40;93.20;;;;;;5044666;28;20061;-62
2021/11/29 09:35:06;;;;;;;26.73;10.57;;;5.40;93.30;;;;;;5025748;28;20361;-60
2021/11/29 09:37:32;;;;;;;22.38;9.75;;;5.50;93.20;;;;;;5028267;28;20032;-61
2021/11/29 09:39:57;;;;;;;25.10;9.73;;;5.40;93.20;;;;;;5024752;28;20416;-60
2021/11/29 09:42:23;;;;;;;26.95;9.95;;;5.50;93.30;;;;;;5029723;28;20104;-62
2021/11/29 09:44:53;;;;;;;26.65;9.65;;;5.50;93.30;;;;;;5028905;28;20021;-60
2021/11/29 09:47:19;;;;;;;35.28;9.75;;;5.40;93.20;;;;;;5028841;28;20067;-64
2021/11/29 09:49:45;;;;;;;26.75;9.73;;;5.50;93.20;;;;;;5011485;28;20029;-62
2021/11/29 09:52:10;;;;;;;23.52;10.90;;;5.50;93.20;;;;;;5010903;28;20040;-63
2021/11/29 09:54:36;;;;;;;48.13;11.57;;;5.50;93.20;;;;;;5025394;28;20035;-61
2021/11/29 09:57:02;;;;;;;24.20;10.68;;;5.50;93.20;;;;;;5028446;28;20028;-61
2021/11/29 09:59:28;;;;;;;34.78;12.57;;;5.50;93.10;;;;;;5042984;28;20594;-61
2021/11/29 10:01:54;;;;;;;67.18;14.50;;;5.50;93.10;;;;;;5059901;28;20035;-61
2021/11/29 10:04:20;;;;;;;45.70;11.40;;;5.50;93.20;;;;;;5009515;28;20041;-61
2021/11/29 10:06:51;;;;;;;44.47;11.80;;;5.60;93.20;;;;;;5025843;28;20033;-62
2021/11/29 10:09:27;;;;;;;75.35;14.00;;;5.60;93.20;;;;;;5030599;28;20738;-61
2021/11/29 10:11:53;;;;;;;49.03;13.27;;;5.60;93.30;;;;;;5031491;28;20537;-65
2021/11/29 10:14:18;;;;;;;44.65;11.23;;;5.60;93.20;;;;;;5030297;28;20064;-61
2021/11/29 10:16:46;;;;;;;49.85;12.02;;;5.60;93.20;;;;;;5029524;28;20048;-61
2021/11/29 10:19:33;;;;;;;40.58;13.27;;;5.60;93.20;;;;;;5029060;28;20050;-61
2021/11/29 10:22:17;;;;;;;51.40;13.88;;;5.60;93.10;;;;;;5030261;28;20048;-60
2021/11/29 10:24:42;;;;;;;41.53;12.27;;;5.70;93.20;;;;;;5027132;28;20032;-61
2021/11/29 10:27:08;;;;;;;49.92;11.35;;;5.70;93.10;;;;;;5012602;28;20020;-61
2021/11/29 10:29:33;;;;;;;42.35;12.23;;;5.70;93.10;;;;;;5013190;28;20016;-61
2021/11/29 10:31:59;;;;;;;58.38;13.60;;;5.70;93.10;;;;;;5010926;28;20515;-61
2021/11/29 10:34:32;;;;;;;230.40;25.65;;;5.80;93.10;;;;;;5024549;28;20651;-60
2021/11/29 10:37:03;;;;;;;74.43;14.23;;;5.70;93.00;;;;;;5027543;28;20119;-61
2021/11/29 10:39:33;;;;;;;42.25;13.32;;;5.80;93.00;;;;;;5027121;28;20027;-61
2021/11/29 10:42:07;;;;;;;42.42;13.18;;;5.80;93.00;;;;;;5040843;28;20103;-61
2021/11/29 10:44:34;;;;;;;46.22;13.70;;;5.80;92.90;;;;;;5027258;28;20032;-61
2021/11/29 10:47:10;;;;;;;44.50;13.60;;;5.80;92.90;;;;;;5024489;28;20042;-63
2021/11/29 10:49:38;;;;;;;44.30;12.73;;;5.90;93.00;;;;;;5040836;28;20093;-61
2021/11/29 10:52:04;;;;;;;42.25;12.15;;;5.80;93.00;;;;;;5043526;28;20327;-62
2021/11/29 10:54:31;;;;;;;46.25;11.75;;;5.90;93.00;;;;;;5012186;28;20060;-61
2021/11/29 10:56:57;;;;;;;47.88;13.50;;;6.00;92.90;;;;;;5026898;28;20017;-61
2021/11/29 10:59:27;;;;;;;53.35;14.30;;;6.00;93.00;;;;;;5025679;28;20590;-61
2021/11/29 11:01:56;;;;;;;56.78;14.63;;;6.00;93.00;;;;;;5042106;28;20434;-61
2021/11/29 11:04:24;;;;;;;57.10;14.68;;;6.00;93.00;;;;;;5021366;28;20044;-61
2021/11/29 11:06:56;;;;;;;69.25;15.25;;;6.00;92.90;;;;;;5025011;28;20020;-61
2021/11/29 11:09:40;;;;;;;67.95;16.52;;;6.00;92.80;;;;;;5014972;28;20619;-61
2021/11/29 11:12:10;;;;;;;103.53;18.80;;;6.00;92.80;;;;;;5028858;28;20016;-62
2021/11/29 11:14:50;;;;;;;60.53;13.38;;;6.00;92.80;;;;;;5028694;28;20175;-63
2021/11/29 11:17:16;;;;;;;54.28;12.48;;;6.00;92.80;;;;;;5030383;28;20116;-63
2021/11/29 11:19:46;;;;;;;74.72;15.25;;;6.00;92.80;;;;;;5029992;28;20182;-62
2021/11/29 11:22:19;;;;;;;52.08;13.75;;;6.00;92.80;;;;;;5029270;28;20039;-62
2021/11/29 11:24:53;;;;;;;61.83;15.60;;;6.00;92.80;;;;;;5026619;28;20040;-63
2021/11/29 11:27:19;;;;;;;83.15;14.82;;;6.00;92.90;;;;;;5025598;28;20211;-63
2021/11/29 11:29:50;;;;;;;59.50;15.25;;;6.10;92.90;;;;;;5012720;28;20047;-63
2021/11/29 11:32:17;;;;;;;67.18;14.88;;;6.20;92.90;;;;;;5011946;28;20032;-63
2021/11/29 11:34:46;;;;;;;60.92;14.30;;;6.10;92.80;;;;;;5045643;28;20059;-62
2021/11/29 11:37:12;;;;;;;85.60;16.63;;;6.20;92.80;;;;;;5012825;28;20036;-63
2021/11/29 11:39:38;;;;;;;67.00;14.05;;;6.20;92.80;;;;;;5017409;28;20479;-62
2021/11/29 11:42:03;;;;;;;78.03;15.95;;;6.20;92.80;;;;;;5030303;28;20035;-63
2021/11/29 11:44:29;;;;;;;70.53;15.05;;;6.20;92.80;;;;;;5044501;28;20040;-63
2021/11/29 11:46:55;;;;;;;98.88;16.25;;;6.20;92.70;;;;;;5012248;28;20036;-62
2021/11/29 11:49:21;;;;;;;68.28;13.75;;;6.20;92.90;;;;;;5010785;28;20375;-62
2021/11/29 11:51:46;;;;;;;51.00;12.68;;;6.20;92.80;;;;;;5014231;28;20102;-63
2021/11/29 11:54:12;;;;;;;77.03;15.00;;;6.20;92.70;;;;;;5010843;28;20500;-63
2021/11/29 11:56:38;;;;;;;116.13;17.90;;;6.40;92.60;;;;;;5024096;28;20024;-62
2021/11/29 11:59:14;;;;;;;72.32;14.82;;;6.20;92.70;;;;;;5008216;28;20303;-62
2021/11/29 12:01:49;;;;;;;109.32;17.40;;;6.20;92.60;;;;;;5023816;28;20036;-63
2021/11/29 12:04:18;;;;;;;108.60;19.13;;;6.30;92.70;;;;;;5025744;28;20484;-63
2021/11/29 12:06:47;;;;;;;75.68;15.63;;;6.30;92.60;;;;;;5012242;28;20040;-63
2021/11/29 12:09:14;;;;;;;83.18;15.25;;;6.30;92.60;;;;;;5028244;28;20578;-61
2021/11/29 12:11:45;;;;;;;77.05;16.17;;;6.30;92.50;;;;;;5043141;28;20020;-61
2021/11/29 12:14:21;;;;;;;84.15;16.23;;;6.30;92.50;;;;;;5012125;28;20032;-61
2021/11/29 12:16:48;;;;;;;67.10;15.07;;;6.30;92.40;;;;;;5028357;28;20090;-63
2021/11/29 12:19:42;;;;;;;84.63;15.18;;;6.30;92.40;;;;;;5009758;28;20124;-63
2021/11/29 12:22:20;;;;;;;78.38;14.07;;;6.30;92.30;;;;;;5043476;28;20036;-63
2021/11/29 12:24:55;;;;;;;72.38;13.75;;;6.30;92.30;;;;;;5063140;28;20028;-63
2021/11/29 12:27:21;;;;;;;74.28;14.20;;;6.40;92.40;;;;;;5046368;28;20108;-62
2021/11/29 12:29:52;;;;;;;63.83;15.60;;;6.30;92.30;;;;;;5030526;28;20039;-63
2021/11/29 12:32:19;;;;;;;88.50;15.13;;;6.40;92.20;;;;;;5045905;28;20510;-62
2021/11/29 12:37:14;;;;;;;81.55;16.15;;;6.40;92.20;;;;;;5062293;28;20167;-63
2021/11/29 12:39:48;;;;;;;52.50;13.45;;;6.40;92.10;;;;;;5043908;28;20033;-60
2021/11/29 12:42:37;;;;;;;58.05;12.82;;;6.40;92.00;;;;;;5044777;28;20051;-61
2021/11/29 12:45:20;;;;;;;79.85;14.50;;;6.40;91.90;;;;;;5063800;28;20127;-60